Time;durP1;ratioP1;P1;durP2;ratioP2;P2;SDS_P1;SDS_P2;PMS_P1;PMS_P2;Temp;Humidity;BMP_temperature;BMP_pressure;BME280_temperature;BME280_humidity;BME280_pressure;Samples;Min_cycle;Max_cycle;Signal;HPM_P1;HPM_P2
2022/06/06 00:00:00;;;;;;;;;;;16.80;99.90;;;;;;5051888;28;20712;-78
2022/06/06 00:02:28;;;;;;;;;;;16.80;99.90;;;;;;5060488;28;21499;-78
2022/06/06 00:04:57;;;;;;;;;;;16.80;99.90;;;;;;5063194;28;20888;-78
2022/06/06 00:07:24;;;;;;;;;;;16.80;99.90;;;;;;5045107;28;19920;-78
2022/06/06 00:09:52;;;;;;;;;;;16.70;99.90;;;;;;5062398;28;19929;-78
2022/06/06 00:12:23;;;;;;;;;;;16.70;99.90;;;;;;5059947;28;19970;-78
2022/06/06 00:14:50;;;;;;;;;;;16.70;99.90;;;;;;5056431;28;19928;-78
2022/06/06 00:17:16;;;;;;;;;;;16.60;99.90;;;;;;5045504;28;19935;-78
2022/06/06 00:19:43;;;;;;;;;;;16.60;99.90;;;;;;5044724;28;19936;-78
2022/06/06 00:22:10;;;;;;;;;;;16.60;99.90;;;;;;5044068;28;20439;-77
2022/06/06 00:24:37;;;;;;;;;;;16.60;99.90;;;;;;5062947;28;19948;-77
2022/06/06 00:27:05;;;;;;;;;;;16.60;99.90;;;;;;5064537;28;19924;-77
2022/06/06 00:29:35;;;;;;;;;;;16.60;99.90;;;;;;5062273;28;19982;-77
2022/06/06 00:34:49;;;;;;;;;;;16.50;99.90;;;;;;5052304;28;19917;-78
2022/06/06 00:37:18;;;;;;;;;;;16.50;99.90;;;;;;5048388;28;19929;-77
2022/06/06 00:39:45;;;;;;;;;;;16.50;99.90;;;;;;5053286;28;19970;-78
2022/06/06 00:42:13;;;;;;;;;;;16.50;99.90;;;;;;5058115;28;19928;-76
2022/06/06 00:44:42;;;;;;;;;;;16.50;99.90;;;;;;5056322;28;19924;-77
2022/06/06 00:47:16;;;;;;;;;;;16.40;99.90;;;;;;5072728;28;19924;-75
2022/06/06 00:49:45;;;;;;;;;;;16.40;99.90;;;;;;5073371;28;19924;-76
2022/06/06 00:52:13;;;;;;;;;;;16.40;99.90;;;;;;5056101;28;19928;-76
2022/06/06 00:54:41;;;;;;;;;;;16.40;99.90;;;;;;5055744;28;19999;-77
2022/06/06 00:57:10;;;;;;;;;;;16.40;99.90;;;;;;5072572;28;20282;-76
2022/06/06 00:59:38;;;;;;;;;;;16.40;99.90;;;;;;5055845;28;20027;-76
2022/06/06 01:02:10;;;;;;;;;;;16.40;99.90;;;;;;5056431;28;20371;-75
2022/06/06 01:04:38;;;;;;;;;;;16.40;99.90;;;;;;5056865;28;19924;-76
2022/06/06 01:07:06;;;;;;;;;;;16.40;99.90;;;;;;5072566;28;20439;-76
2022/06/06 01:09:33;;;;;;;;;;;16.40;99.90;;;;;;5072707;28;19920;-75
2022/06/06 01:12:01;;;;;;;;;;;16.40;99.90;;;;;;5055353;28;19924;-76
2022/06/06 01:14:30;;;;;;;;;;;17.40;99.90;;;;;;5055559;28;19950;-75
2022/06/06 01:17:01;;;;;;;;;;;16.40;99.90;;;;;;5072545;28;19928;-76
2022/06/06 01:19:40;;;;;;;;;;;16.40;99.90;;;;;;5072630;28;19967;-75
2022/06/06 01:22:25;;;;;;;;;;;16.30;99.90;;;;;;5074003;28;19924;-74
2022/06/06 01:25:03;;;;;;;;;;;16.30;99.90;;;;;;5071951;28;20026;-75
2022/06/06 01:27:35;;;;;;;;;;;16.20;99.90;;;;;;5057120;28;19920;-76
2022/06/06 01:30:06;;;;;;;;;;;16.20;99.90;;;;;;5074607;28;19925;-75
2022/06/06 01:32:35;;;;;;;;;;;16.20;99.90;;;;;;5073127;28;20015;-77
2022/06/06 01:35:03;;;;;;;;;;;16.10;99.90;;;;;;5075035;28;19924;-77
2022/06/06 01:37:32;;;;;;;;;;;16.10;99.90;;;;;;5072177;28;19928;-75
2022/06/06 01:40:00;;;;;;;;;;;16.10;99.90;;;;;;5076678;28;19932;-75
2022/06/06 01:42:31;;;;;;;;;;;16.00;99.90;;;;;;5073826;28;20031;-76
2022/06/06 01:45:00;;;;;;;;;;;16.00;99.90;;;;;;5055625;28;19920;-76
2022/06/06 01:47:30;;;;;;;;;;;16.10;99.90;;;;;;5080509;28;19928;-76
2022/06/06 01:49:58;;;;;;;;;;;;;;;;;;5085025;28;19934;-77
2022/06/06 01:52:25;;;;;;;;;;;16.10;99.90;;;;;;5082739;28;19924;-78
2022/06/06 01:54:53;;;;;;;;;;;16.10;99.90;;;;;;5058384;28;20351;-79
2022/06/06 01:57:22;;;;;;;;;;;16.10;99.90;;;;;;5055043;28;19920;-76
2022/06/06 01:59:50;;;;;;;;;;;16.10;99.90;;;;;;5073197;28;20370;-76
2022/06/06 02:02:17;;;;;;;;;;;16.10;99.90;;;;;;5055632;28;19934;-76
2022/06/06 02:04:46;;;;;;;;;;;16.10;99.90;;;;;;5055097;28;19920;-76
2022/06/06 02:07:12;;;;;;;;;;;16.10;99.90;;;;;;5056517;28;19927;-77
2022/06/06 02:09:39;;;;;;;;;;;16.10;99.90;;;;;;5055755;28;19920;-76
2022/06/06 02:12:09;;;;;;;;;;;16.10;99.90;;;;;;5058564;28;19925;-76
2022/06/06 02:14:36;;;;;;;;;;;16.10;99.90;;;;;;5054361;28;19935;-76
2022/06/06 02:17:03;;;;;;;;;;;16.00;99.90;;;;;;5036029;28;19932;-80
2022/06/06 02:19:30;;;;;;;;;;;16.00;99.90;;;;;;5069814;28;20383;-80
2022/06/06 02:21:59;;;;;;;;;;;16.00;99.90;;;;;;5052930;28;19924;-78
2022/06/06 02:24:26;;;;;;;;;;;16.00;99.90;;;;;;5057305;28;21213;-79
2022/06/06 02:26:52;;;;;;;;;;;16.00;99.90;;;;;;5064877;28;20011;-76
2022/06/06 02:29:20;;;;;;;;;;;16.00;99.90;;;;;;5060232;28;19947;-76
2022/06/06 02:31:47;;;;;;;;;;;16.10;99.90;;;;;;5064335;28;20145;-77
2022/06/06 02:34:14;;;;;;;;;;;16.10;99.90;;;;;;5065305;28;19915;-76
2022/06/06 02:36:41;;;;;;;;;;;16.10;99.90;;;;;;5042055;28;19998;-75
2022/06/06 02:39:09;;;;;;;;;;;16.10;99.90;;;;;;5044365;28;20314;-76
2022/06/06 02:41:36;;;;;;;;;;;16.10;99.90;;;;;;5045889;28;19929;-76
2022/06/06 02:44:03;;;;;;;;;;;16.00;99.90;;;;;;5047554;28;19920;-76
2022/06/06 02:46:30;;;;;;;;;;;16.00;99.90;;;;;;5059191;28;19925;-76
2022/06/06 02:48:57;;;;;;;;;;;16.00;99.90;;;;;;5060139;28;19928;-76
2022/06/06 02:51:23;;;;;;;;;;;16.00;99.90;;;;;;5059406;28;19979;-76
2022/06/06 02:53:50;;;;;;;;;;;16.00;99.90;;;;;;5062101;28;20492;-76
2022/06/06 02:56:19;;;;;;;;;;;16.00;99.90;;;;;;5059369;28;19924;-77
2022/06/06 02:58:46;;;;;;;;;;;16.00;99.90;;;;;;5044029;28;20373;-76
2022/06/06 03:01:13;;;;;;;;;;;16.00;99.90;;;;;;5047031;28;19920;-76
2022/06/06 03:03:41;;;;;;;;;;;16.00;99.90;;;;;;5048722;28;19962;-76
2022/06/06 03:06:14;;;;;;;;;;;16.00;99.90;;;;;;5056244;28;19929;-76
2022/06/06 03:08:45;;;;;;;;;;;16.00;99.90;;;;;;5047901;28;19920;-76
2022/06/06 03:11:18;;;;;;;;;;;16.00;99.90;;;;;;5057014;28;20312;-77
2022/06/06 03:13:57;;;;;;;;;;;16.00;99.90;;;;;;5059805;28;19920;-78
2022/06/06 03:22:19;;;;;;;;;;;16.00;99.90;;;;;;5058328;28;19916;-77
2022/06/06 03:24:52;;;;;;;;;;;16.00;99.90;;;;;;5060535;28;19987;-80
2022/06/06 03:27:23;;;;;;;;;;;16.00;99.90;;;;;;5058122;28;19968;-80
2022/06/06 03:29:57;;;;;;;;;;;16.00;99.90;;;;;;5056026;28;19924;-80
2022/06/06 03:32:30;;;;;;;;;;;16.00;99.90;;;;;;5042243;28;20024;-79
2022/06/06 03:35:01;;;;;;;;;;;16.00;99.90;;;;;;5077516;28;19985;-83
2022/06/06 03:37:31;;;;;;;;;;;16.00;99.90;;;;;;5055636;28;19929;-80
2022/06/06 03:40:03;;;;;;;;;;;16.00;99.90;;;;;;5070494;28;20277;-79
2022/06/06 03:42:33;;;;;;;;;;;16.10;99.90;;;;;;5059049;28;19920;-80
2022/06/06 03:45:06;;;;;;;;;;;16.00;99.90;;;;;;5067310;28;19908;-80
2022/06/06 03:47:42;;;;;;;;;;;16.10;99.90;;;;;;5048903;28;19916;-80
2022/06/06 03:50:26;;;;;;;;;;;16.10;99.90;;;;;;5064036;28;19988;-80
2022/06/06 03:52:56;;;;;;;;;;;16.10;99.90;;;;;;5053951;28;19913;-80
2022/06/06 03:55:29;;;;;;;;;;;16.10;99.90;;;;;;5064890;28;19920;-81
2022/06/06 03:57:57;;;;;;;;;;;16.10;99.90;;;;;;5054111;28;20031;-82
2022/06/06 04:00:25;;;;;;;;;;;16.10;99.90;;;;;;5070028;28;19989;-79
2022/06/06 04:02:56;;;;;;;;;;;16.10;99.90;;;;;;5064772;28;19920;-80
2022/06/06 04:05:23;;;;;;;;;;;16.20;99.90;;;;;;5066504;28;19925;-80
2022/06/06 04:07:50;;;;;;;;;;;16.20;99.90;;;;;;5065175;28;19924;-81
2022/06/06 04:10:18;;;;;;;;;;;16.20;99.90;;;;;;5088742;28;20018;-80
2022/06/06 04:13:01;;;;;;;;;;;16.20;99.90;;;;;;5067231;28;19924;-81
2022/06/06 04:15:33;;;;;;;;;;;16.20;99.90;;;;;;5070096;28;19923;-81
2022/06/06 04:18:08;;;;;;;;;;;16.20;99.90;;;;;;5061421;28;19958;-80
2022/06/06 04:20:38;;;;;;;;;;;16.20;99.90;;;;;;5050981;28;19982;-81
2022/06/06 04:23:15;;;;;;;;;;;16.20;99.90;;;;;;5053407;28;19953;-78
2022/06/06 04:25:46;;;;;;;;;;;16.30;99.90;;;;;;5061754;28;20472;-79
2022/06/06 04:28:16;;;;;;;;;;;16.50;99.90;;;;;;5070832;28;19931;-78
2022/06/06 04:30:48;;;;;;;;;;;16.60;99.90;;;;;;5080589;28;19969;-78
2022/06/06 04:33:18;;;;;;;;;;;16.60;99.90;;;;;;5090193;28;19928;-78
2022/06/06 04:35:49;;;;;;;;;;;16.80;99.90;;;;;;5065945;28;20108;-77
2022/06/06 04:38:20;;;;;;;;;;;16.70;99.90;;;;;;5073197;28;20398;-76
2022/06/06 04:40:50;;;;;;;;;;;16.80;99.90;;;;;;5059171;28;19959;-77
2022/06/06 04:43:20;;;;;;;;;;;16.70;99.90;;;;;;5077489;28;20336;-76
2022/06/06 04:45:52;;;;;;;;;;;16.80;99.90;;;;;;5060845;28;19924;-76
2022/06/06 04:48:20;;;;;;;;;;;16.80;99.90;;;;;;5058111;28;19925;-77
2022/06/06 04:50:48;;;;;;;;;;;16.80;99.90;;;;;;5051668;28;20014;-77
2022/06/06 04:53:17;;;;;;;;;;;16.80;99.90;;;;;;5059941;28;19924;-77
2022/06/06 04:55:45;;;;;;;;;;;16.70;99.90;;;;;;5053586;28;20427;-78
2022/06/06 04:58:13;;;;;;;;;;;16.70;99.90;;;;;;5042137;28;19927;-79
2022/06/06 05:00:42;;;;;;;;;;;16.70;99.90;;;;;;5070547;28;19927;-79
2022/06/06 05:03:09;;;;;;;;;;;;;;;;;;5065637;28;19946;-79
2022/06/06 05:05:41;;;;;;;;;;;17.10;99.90;;;;;;5049408;28;20035;-78
2022/06/06 05:08:14;;;;;;;;;;;17.10;99.90;;;;;;5058169;28;19924;-78
2022/06/06 05:10:52;;;;;;;;;;;17.30;99.90;;;;;;5088750;28;19924;-79
2022/06/06 05:13:29;;;;;;;;;;;17.50;99.90;;;;;;5053824;28;19924;-79
2022/06/06 05:16:04;;;;;;;;;;;17.60;99.90;;;;;;5056439;28;19935;-78
2022/06/06 05:18:49;;;;;;;;;;;18.10;99.90;;;;;;5050631;28;19933;-79
2022/06/06 05:21:24;;;;;;;;;;;17.60;99.90;;;;;;5072682;28;19921;-79
2022/06/06 05:24:04;;;;;;;;;;;17.60;99.90;;;;;;5062345;28;20309;-79
2022/06/06 05:26:42;;;;;;;;;;;17.60;99.90;;;;;;5067268;28;19924;-79
2022/06/06 05:29:17;;;;;;;;;;;17.60;99.90;;;;;;5077248;28;19924;-78
2022/06/06 05:31:56;;;;;;;;;;;17.60;99.90;;;;;;5062103;28;19924;-79
2022/06/06 05:34:26;;;;;;;;;;;18.20;99.90;;;;;;5075862;28;19935;-79
2022/06/06 05:36:59;;;;;;;;;;;19.10;99.90;;;;;;5064153;28;19920;-80
2022/06/06 05:39:45;;;;;;;;;;;20.30;99.90;;;;;;5057612;28;20015;-80
2022/06/06 05:42:19;;;;;;;;;;;21.70;99.90;;;;;;5058601;28;19959;-79
2022/06/06 05:44:52;;;;;;;;;;;23.30;99.90;;;;;;5058127;28;19920;-81
2022/06/06 05:47:24;;;;;;;;;;;24.90;99.90;;;;;;5058664;28;19927;-80
2022/06/06 05:50:02;;;;;;;;;;;25.60;99.90;;;;;;5058765;28;19925;-78
2022/06/06 05:52:40;;;;;;;;;;;25.50;99.90;;;;;;5057305;28;20015;-78
2022/06/06 05:55:21;;;;;;;;;;;25.30;99.90;;;;;;5045158;28;19932;-77
2022/06/06 05:57:49;;;;;;;;;;;;;;;;;;5051136;28;19979;-80
2022/06/06 06:00:21;;;;;;;;;;;24.80;99.90;;;;;;5059032;28;19970;-80
2022/06/06 06:03:00;;;;;;;;;;;25.60;99.90;;;;;;5057712;28;20058;-83
2022/06/06 06:05:31;;;;;;;;;;;27.90;99.90;;;;;;5047957;28;19961;-78
2022/06/06 06:08:09;;;;;;;;;;;28.00;99.90;;;;;;5060458;28;19967;-78
2022/06/06 06:10:42;;;;;;;;;;;28.80;99.90;;;;;;5045466;28;19947;-77
2022/06/06 06:13:18;;;;;;;;;;;28.30;99.90;;;;;;5048994;28;19921;-77
2022/06/06 06:15:48;;;;;;;;;;;27.60;99.90;;;;;;5048502;28;19936;-77
2022/06/06 06:18:18;;;;;;;;;;;27.70;99.90;;;;;;5047591;28;19990;-78
2022/06/06 06:20:51;;;;;;;;;;;28.20;99.90;;;;;;5055352;28;19956;-80
2022/06/06 06:23:23;;;;;;;;;;;28.10;99.90;;;;;;5038500;28;19921;-78
2022/06/06 06:25:51;;;;;;;;;;;29.10;99.90;;;;;;5061269;28;19925;-78
2022/06/06 06:28:18;;;;;;;;;;;31.00;99.90;;;;;;5057878;28;19921;-77
2022/06/06 06:30:50;;;;;;;;;;;30.80;99.90;;;;;;5054191;28;19920;-85
2022/06/06 06:33:24;;;;;;;;;;;30.90;99.90;;;;;;5055378;28;19920;-79
2022/06/06 06:35:57;;;;;;;;;;;30.60;99.90;;;;;;5064337;28;19925;-78
2022/06/06 06:38:40;;;;;;;;;;;29.80;99.90;;;;;;5064372;28;19954;-79
2022/06/06 06:41:23;;;;;;;;;;;29.70;99.90;;;;;;5050533;28;19924;-79
2022/06/06 06:43:58;;;;;;;;;;;30.50;99.90;;;;;;5068361;28;19929;-79
2022/06/06 06:46:27;;;;;;;;;;;30.50;99.90;;;;;;5066242;28;19924;-79
2022/06/06 06:49:01;;;;;;;;;;;29.90;99.90;;;;;;5041135;28;19949;-83
2022/06/06 06:51:36;;;;;;;;;;;30.10;99.90;;;;;;5068370;28;19925;-85
2022/06/06 06:54:12;;;;;;;;;;;30.80;99.90;;;;;;5058464;28;19920;-77
2022/06/06 06:56:46;;;;;;;;;;;31.90;99.70;;;;;;5056287;28;19978;-78
2022/06/06 06:59:19;;;;;;;;;;;32.90;98.60;;;;;;5055564;28;19931;-82
2022/06/06 07:10:30;;;;;;;;;;;35.40;90.10;;;;;;5057295;28;19923;-78
2022/06/06 07:13:04;;;;;;;;;;;34.90;90.00;;;;;;5073838;28;20015;-79
2022/06/06 07:15:35;;;;;;;;;;;35.00;86.90;;;;;;5058419;28;19920;-79
2022/06/06 07:18:03;;;;;;;;;;;35.10;83.60;;;;;;5035644;28;20330;-82
2022/06/06 07:20:30;;;;;;;;;;;35.30;80.50;;;;;;5056590;28;19987;-82
2022/06/06 07:23:02;;;;;;;;;;;35.30;78.90;;;;;;5065901;28;20377;-78
2022/06/06 07:25:32;;;;;;;;;;;35.60;79.70;;;;;;5071627;28;19912;-82
2022/06/06 07:28:00;;;;;;;;;;;35.70;77.80;;;;;;5057390;28;20619;-81
2022/06/06 07:30:30;;;;;;;;;;;35.90;75.30;;;;;;5059740;28;19925;-82
2022/06/06 07:33:10;;;;;;;;;;;36.10;75.20;;;;;;5035216;28;20003;-83
2022/06/06 07:35:39;;;;;;;;;;;36.60;76.90;;;;;;5046585;28;19984;-81
2022/06/06 07:38:16;;;;;;;;;;;36.70;72.40;;;;;;5056952;28;19924;-80
2022/06/06 07:40:51;;;;;;;;;;;36.50;70.80;;;;;;5039224;28;19990;-81
2022/06/06 07:43:29;;;;;;;;;;;36.50;71.50;;;;;;5039793;28;19948;-81
2022/06/06 07:46:02;;;;;;;;;;;36.70;71.50;;;;;;5044482;28;19936;-80
2022/06/06 07:48:47;;;;;;;;;;;36.40;69.80;;;;;;5040696;28;19921;-80
2022/06/06 07:51:18;;;;;;;;;;;33.90;68.50;;;;;;5030428;28;20296;-82
2022/06/06 07:53:50;;;;;;;;;;;33.90;68.90;;;;;;5038125;28;19929;-81
2022/06/06 07:56:24;;;;;;;;;;;34.10;70.40;;;;;;5032605;28;19951;-83
2022/06/06 07:58:57;;;;;;;;;;;34.10;70.30;;;;;;5044055;28;19931;-81
2022/06/06 08:01:28;;;;;;;;;;;34.50;70.70;;;;;;5036072;28;19920;-84
2022/06/06 08:04:00;;;;;;;;;;;34.90;70.40;;;;;;5030699;28;20364;-85
2022/06/06 08:06:35;;;;;;;;;;;35.40;69.60;;;;;;5050086;28;20406;-82
2022/06/06 08:09:05;;;;;;;;;;;35.80;69.20;;;;;;5033476;28;19960;-84
2022/06/06 08:11:40;;;;;;;;;;;36.10;67.80;;;;;;5037544;28;20014;-83
2022/06/06 08:14:15;;;;;;;;;;;36.00;66.40;;;;;;5042193;28;19920;-82
2022/06/06 08:16:44;;;;;;;;;;;35.50;64.80;;;;;;5036051;28;20402;-84
2022/06/06 08:19:19;;;;;;;;;;;35.60;64.30;;;;;;5046010;28;19921;-83
2022/06/06 08:21:47;;;;;;;;;;;35.60;64.60;;;;;;5046854;28;19950;-85
2022/06/06 08:24:22;;;;;;;;;;;34.40;63.80;;;;;;5044273;28;19932;-79
2022/06/06 08:26:53;;;;;;;;;;;33.10;66.70;;;;;;5032934;28;19927;-78
2022/06/06 08:29:24;;;;;;;;;;;33.10;65.10;;;;;;5035850;28;19943;-82
2022/06/06 08:31:58;;;;;;;;;;;31.60;68.70;;;;;;5050523;28;19927;-82
2022/06/06 08:34:28;;;;;;;;;;;31.60;68.10;;;;;;5060278;28;19924;-77
2022/06/06 08:37:06;;;;;;;;;;;31.00;68.70;;;;;;5069597;28;19931;-82
2022/06/06 08:39:40;;;;;;;;;;;30.80;69.20;;;;;;5060573;28;19956;-82
2022/06/06 08:42:24;;;;;;;;;;;30.40;69.20;;;;;;5052891;28;19931;-84
2022/06/06 08:44:53;;;;;;;;;;;30.20;69.60;;;;;;5042901;28;19935;-83
2022/06/06 08:47:28;;;;;;;;;;;31.00;68.60;;;;;;5050481;28;19928;-84
2022/06/06 08:53:12;;;;;;;;;;;30.90;68.60;;;;;;5078120;28;20018;-82
2022/06/06 08:55:53;;;;;;;;;;;31.40;70.70;;;;;;5021198;28;20268;-84
2022/06/06 08:58:36;;;;;;;;;;;31.50;69.30;;;;;;5062014;28;19920;-83
2022/06/06 09:01:08;;;;;;;;;;;31.30;68.60;;;;;;5057446;28;19952;-84
2022/06/06 09:03:54;;;;;;;;;;;30.60;67.70;;;;;;5052674;28;19936;-83
2022/06/06 09:06:34;;;;;;;;;;;29.00;68.80;;;;;;5054734;28;20016;-83
2022/06/06 09:09:16;;;;;;;;;;;28.70;70.30;;;;;;5075135;28;19995;-83
2022/06/06 09:12:07;;;;;;;;;;;28.70;72.40;;;;;;5068569;28;19928;-84
2022/06/06 09:14:55;;;;;;;;;;;29.20;74.40;;;;;;5044247;28;20766;-83
2022/06/06 09:17:42;;;;;;;;;;;29.80;73.70;;;;;;5053946;28;20011;-83
2022/06/06 09:20:47;;;;;;;;;;;30.70;72.40;;;;;;5070081;28;19989;-79
2022/06/06 09:23:29;;;;;;;;;;;30.80;71.00;;;;;;5018195;28;19925;-83
2022/06/06 09:26:02;;;;;;;;;;;30.60;71.00;;;;;;5028445;28;19931;-83
2022/06/06 09:28:50;;;;;;;;;;;30.60;70.70;;;;;;5061924;28;19920;-81
2022/06/06 09:31:27;;;;;;;;;;;29.60;69.40;;;;;;5054558;28;19924;-80
2022/06/06 09:34:18;;;;;;;;;;;29.10;69.20;;;;;;5060236;28;19925;-83
2022/06/06 09:36:47;;;;;;;;;;;27.70;70.20;;;;;;5044755;28;20038;-82
2022/06/06 09:39:32;;;;;;;;;;;27.40;71.60;;;;;;5049400;28;19974;-83
2022/06/06 09:42:02;;;;;;;;;;;27.20;72.60;;;;;;5052004;28;19924;-82
2022/06/06 09:44:45;;;;;;;;;;;27.20;73.20;;;;;;5058531;28;19943;-83
2022/06/06 09:47:31;;;;;;;;;;;27.10;73.20;;;;;;5055040;28;19928;-84
2022/06/06 09:50:33;;;;;;;;;;;26.90;73.70;;;;;;5056828;28;20413;-77
2022/06/06 09:53:26;;;;;;;;;;;26.70;74.20;;;;;;5055050;28;19931;-80
2022/06/06 09:59:25;;;;;;;;;;;26.00;74.80;;;;;;4970798;28;19918;-81
2022/06/06 10:02:16;;;;;;;;;;;26.10;76.90;;;;;;5026411;28;19962;-83
2022/06/06 10:05:04;;;;;;;;;;;26.50;77.00;;;;;;5070274;28;19935;-80
2022/06/06 10:07:40;;;;;;;;;;;26.70;75.70;;;;;;5048876;28;20600;-81
2022/06/06 10:10:41;;;;;;;;;;;26.60;75.90;;;;;;5054945;28;19924;-81
2022/06/06 10:13:11;;;;;;;;;;;26.50;76.00;;;;;;4990691;28;19922;-81
2022/06/06 10:15:57;;;;;;;;;;;26.00;75.40;;;;;;4990559;28;20021;-80
2022/06/06 10:18:37;;;;;;;;;;;26.00;75.90;;;;;;5030071;28;20011;-78
2022/06/06 10:21:17;;;;;;;;;;;25.70;76.60;;;;;;5061448;28;19974;-78
2022/06/06 10:23:50;;;;;;;;;;;25.50;76.90;;;;;;5050397;28;20007;-78
2022/06/06 10:26:27;;;;;;;;;;;24.70;77.50;;;;;;5071451;28;19924;-78
2022/06/06 10:29:05;;;;;;;;;;;24.70;78.10;;;;;;5066100;28;19924;-78
2022/06/06 10:31:45;;;;;;;;;;;24.40;78.60;;;;;;5059123;28;20307;-78
2022/06/06 10:34:27;;;;;;;;;;;24.20;79.10;;;;;;5051147;28;19970;-78
2022/06/06 10:37:00;;;;;;;;;;;24.10;79.10;;;;;;5049342;28;20319;-78
2022/06/06 10:39:38;;;;;;;;;;;24.10;80.00;;;;;;5048881;28;19928;-78
2022/06/06 10:42:13;;;;;;;;;;;24.10;80.20;;;;;;5050099;28;19920;-78
2022/06/06 10:44:52;;;;;;;;;;;24.30;80.50;;;;;;5044427;28;19954;-78
2022/06/06 10:47:28;;;;;;;;;;;24.60;79.90;;;;;;5037279;28;19966;-77
2022/06/06 10:50:02;;;;;;;;;;;25.00;80.10;;;;;;5070026;28;19994;-77
2022/06/06 10:52:47;;;;;;;;;;;25.40;80.10;;;;;;5068961;28;19924;-77
2022/06/06 10:55:15;;;;;;;;;;;;;;;;;;5051838;28;19929;-76
2022/06/06 10:57:58;;;;;;;;;;;25.70;77.50;;;;;;5052842;28;20367;-79
2022/06/06 11:00:34;;;;;;;;;;;25.00;77.80;;;;;;5050748;28;19920;-78
2022/06/06 11:03:23;;;;;;;;;;;24.20;79.70;;;;;;5038978;28;19927;-82
2022/06/06 11:06:09;;;;;;;;;;;23.50;81.40;;;;;;5025763;28;19948;-77
2022/06/06 11:08:51;;;;;;;;;;;23.40;82.50;;;;;;5049707;28;19925;-78
2022/06/06 11:11:37;;;;;;;;;;;23.30;83.60;;;;;;5044135;28;20529;-77
2022/06/06 11:14:05;;;;;;;;;;;23.10;85.70;;;;;;5043280;28;19920;-77
2022/06/06 11:16:43;;;;;;;;;;;22.60;87.50;;;;;;5043689;28;19991;-78
2022/06/06 11:19:29;;;;;;;;;;;22.10;89.20;;;;;;5071723;28;19924;-79
2022/06/06 11:22:18;;;;;;;;;;;21.50;90.10;;;;;;5059144;28;19974;-79
2022/06/06 11:24:55;;;;;;;;;;;21.20;91.00;;;;;;5054301;28;19924;-85
2022/06/06 11:27:48;;;;;;;;;;;21.40;91.20;;;;;;5045877;28;19951;-77
2022/06/06 11:30:32;;;;;;;;;;;21.50;91.60;;;;;;5037707;28;19929;-82
2022/06/06 11:33:17;;;;;;;;;;;21.60;92.10;;;;;;5068153;28;20338;-79
2022/06/06 11:36:00;;;;;;;;;;;22.30;91.90;;;;;;5053279;28;19929;-77
2022/06/06 11:38:54;;;;;;;;;;;22.30;92.70;;;;;;5056934;28;19967;-78
2022/06/06 11:41:37;;;;;;;;;;;22.60;92.50;;;;;;5052022;28;19947;-81
2022/06/06 11:44:14;;;;;;;;;;;22.50;92.30;;;;;;5056340;28;19988;-80
2022/06/06 11:47:09;;;;;;;;;;;22.40;93.10;;;;;;5057809;28;19921;-78
2022/06/06 11:49:44;;;;;;;;;;;22.40;93.20;;;;;;4999158;28;19921;-80
2022/06/06 11:52:27;;;;;;;;;;;22.40;93.10;;;;;;5052489;28;19944;-81
2022/06/06 11:55:08;;;;;;;;;;;22.40;93.50;;;;;;5072411;28;20437;-81
2022/06/06 11:57:53;;;;;;;;;;;23.00;93.60;;;;;;5046477;28;19959;-81
2022/06/06 12:00:22;;;;;;;;;;;23.40;93.40;;;;;;5035047;28;20368;-78
2022/06/06 12:03:03;;;;;;;;;;;23.40;93.70;;;;;;5033773;28;19925;-79
2022/06/06 12:06:00;;;;;;;;;;;24.10;92.30;;;;;;5072837;28;19944;-80
2022/06/06 12:08:40;;;;;;;;;;;24.10;92.50;;;;;;5077931;28;20011;-81
2022/06/06 12:11:23;;;;;;;;;;;24.00;91.70;;;;;;5077352;28;20245;-80
2022/06/06 12:14:04;;;;;;;;;;;23.70;91.60;;;;;;5051162;28;20324;-81
2022/06/06 12:16:34;;;;;;;;;;;23.70;91.40;;;;;;5045967;28;19924;-82
2022/06/06 12:19:20;;;;;;;;;;;23.70;91.10;;;;;;5060922;28;19930;-82
2022/06/06 12:21:53;;;;;;;;;;;23.70;91.30;;;;;;5043581;28;19992;-80
2022/06/06 12:24:35;;;;;;;;;;;23.70;91.60;;;;;;5058509;28;19924;-79
2022/06/06 12:27:14;;;;;;;;;;;23.70;91.40;;;;;;5056103;28;19924;-79
2022/06/06 12:29:55;;;;;;;;;;;22.40;91.00;;;;;;5071749;28;19990;-82
2022/06/06 12:32:38;;;;;;;;;;;24.50;91.20;;;;;;5057935;28;19927;-83
2022/06/06 12:35:09;;;;;;;;;;;24.50;91.30;;;;;;5065719;28;19924;-82
2022/06/06 12:37:43;;;;;;;;;;;24.80;90.70;;;;;;5058207;28;19924;-77
2022/06/06 12:40:14;;;;;;;;;;;24.90;90.50;;;;;;5062829;28;19984;-81
2022/06/06 12:42:48;;;;;;;;;;;25.20;90.00;;;;;;5061833;28;19940;-79
2022/06/06 12:45:25;;;;;;;;;;;25.80;89.90;;;;;;5061981;28;20668;-81
2022/06/06 12:48:02;;;;;;;;;;;25.90;89.80;;;;;;5082492;28;19920;-80
2022/06/06 12:50:41;;;;;;;;;;;26.00;88.50;;;;;;5076334;28;19989;-81
2022/06/06 12:53:53;;;;;;;;;;;25.90;87.00;;;;;;5059601;28;19974;-79
2022/06/06 12:57:12;;;;;;;;;;;25.60;87.20;;;;;;5077957;28;19931;-79
2022/06/06 13:01:37;;;;;;;;;;;25.10;87.60;;;;;;5083087;28;19909;-79
2022/06/06 13:03:19;;;;;;;;;;;24.50;87.70;;;;;;5153161;22;20312;-79
2022/06/06 13:05:54;;;;;;;;;;;24.50;86.60;;;;;;5087283;28;19970;-79
2022/06/06 13:08:42;;;;;;;;;;;24.30;86.10;;;;;;5075799;28;19909;-79
2022/06/06 13:11:23;;;;;;;;;;;24.20;87.10;;;;;;5072093;28;19908;-78
2022/06/06 13:13:58;;;;;;;;;;;24.50;85.40;;;;;;5069079;28;20023;-77
2022/06/06 13:16:32;;;;;;;;;;;24.50;85.70;;;;;;5080140;28;19921;-78
2022/06/06 13:19:14;;;;;;;;;;;24.70;84.90;;;;;;5064845;28;19963;-79
2022/06/06 13:21:59;;;;;;;;;;;24.60;83.70;;;;;;5080834;28;19924;-79
2022/06/06 13:24:56;;;;;;;;;;;24.70;84.30;;;;;;5074867;28;19915;-80
2022/06/06 13:27:29;;;;;;;;;;;24.80;84.40;;;;;;5080796;28;20027;-77
2022/06/06 13:29:58;;;;;;;;;;;24.90;82.30;;;;;;5080572;28;19920;-77
2022/06/06 13:32:36;;;;;;;;;;;25.00;80.40;;;;;;5080567;28;19931;-77
2022/06/06 13:35:12;;;;;;;;;;;25.00;79.60;;;;;;5073872;28;19933;-78
2022/06/06 13:37:47;;;;;;;;;;;25.00;79.90;;;;;;5067608;28;19924;-75
2022/06/06 13:40:29;;;;;;;;;;;25.00;80.30;;;;;;5081800;28;19928;-79
2022/06/06 13:43:20;;;;;;;;;;;25.10;79.60;;;;;;5065951;28;20304;-80
2022/06/06 13:45:48;;;;;;;;;;;25.10;80.30;;;;;;5071307;28;20436;-75
2022/06/06 13:48:31;;;;;;;;;;;25.30;80.10;;;;;;5083390;28;19970;-73
2022/06/06 13:51:21;;;;;;;;;;;25.40;80.00;;;;;;5090380;28;19992;-74
2022/06/06 13:54:04;;;;;;;;;;;25.40;77.90;;;;;;5084033;28;20459;-74
2022/06/06 13:56:40;;;;;;;;;;;25.40;78.10;;;;;;5072230;28;19943;-74
2022/06/06 13:59:25;;;;;;;;;;;25.40;78.20;;;;;;5070236;28;20025;-75
2022/06/06 14:01:58;;;;;;;;;;;25.40;78.90;;;;;;5056813;28;19924;-77
2022/06/06 14:07:14;;;;;;;;;;;25.40;79.20;;;;;;5101267;22;19928;-77
2022/06/06 14:09:43;;;;;;;;;;;25.50;79.10;;;;;;5063465;28;19924;-77
2022/06/06 14:12:26;;;;;;;;;;;25.50;79.30;;;;;;5067656;28;20070;-77
2022/06/06 14:14:54;;;;;;;;;;;25.70;79.20;;;;;;5049675;28;19931;-76
2022/06/06 14:17:25;;;;;;;;;;;25.70;76.50;;;;;;5073604;28;20427;-76
2022/06/06 14:20:02;;;;;;;;;;;25.70;76.50;;;;;;5043082;28;20448;-78
2022/06/06 14:22:30;;;;;;;;;;;25.90;76.80;;;;;;5065365;28;19935;-77
2022/06/06 14:25:01;;;;;;;;;;;26.00;75.60;;;;;;5062893;28;19921;-78
2022/06/06 14:27:28;;;;;;;;;;;26.00;75.50;;;;;;5066903;28;19993;-75
2022/06/06 14:29:57;;;;;;;;;;;25.90;75.40;;;;;;5059587;28;19924;-75
2022/06/06 14:32:25;;;;;;;;;;;25.60;76.10;;;;;;5066659;28;19971;-78
2022/06/06 14:34:52;;;;;;;;;;;25.30;76.70;;;;;;5039875;28;19932;-78
2022/06/06 14:37:20;;;;;;;;;;;25.20;77.40;;;;;;5068210;28;19926;-76
2022/06/06 14:39:48;;;;;;;;;;;25.20;77.30;;;;;;5044389;28;19963;-78
2022/06/06 14:42:17;;;;;;;;;;;25.20;77.20;;;;;;5061382;28;19931;-77
2022/06/06 14:44:46;;;;;;;;;;;25.10;77.50;;;;;;5041856;28;19986;-77
2022/06/06 14:47:14;;;;;;;;;;;25.10;77.90;;;;;;5050012;28;19924;-76
2022/06/06 14:49:43;;;;;;;;;;;25.20;78.20;;;;;;5066060;28;19927;-76
2022/06/06 14:52:13;;;;;;;;;;;24.40;77.20;;;;;;5048436;28;20612;-78
2022/06/06 14:54:40;;;;;;;;;;;25.30;77.60;;;;;;5067194;28;20615;-78
2022/06/06 14:57:09;;;;;;;;;;;25.30;77.30;;;;;;5069602;28;19936;-77
2022/06/06 14:59:42;;;;;;;;;;;25.40;76.40;;;;;;5064395;28;20549;-78
2022/06/06 15:02:10;;;;;;;;;;;25.40;76.40;;;;;;5067039;28;19932;-76
2022/06/06 15:04:37;;;;;;;;;;;25.50;76.60;;;;;;5044972;28;19935;-76
2022/06/06 15:07:04;;;;;;;;;;;25.50;76.50;;;;;;5061567;28;19927;-74
2022/06/06 15:09:35;;;;;;;;;;;25.50;76.70;;;;;;5065416;28;20292;-74
2022/06/06 15:12:02;;;;;;;;;;;25.50;76.80;;;;;;5068690;28;19997;-74
2022/06/06 15:14:30;;;;;;;;;;;25.50;77.80;;;;;;5046566;28;19924;-74
2022/06/06 15:16:59;;;;;;;;;;;25.50;77.20;;;;;;5063675;28;20357;-74
2022/06/06 15:19:28;;;;;;;;;;;25.50;77.30;;;;;;5068328;28;20062;-74
2022/06/06 15:21:55;;;;;;;;;;;25.40;77.60;;;;;;5069633;28;19938;-74
2022/06/06 15:24:25;;;;;;;;;;;25.20;77.80;;;;;;5067081;28;20022;-74
2022/06/06 15:26:56;;;;;;;;;;;25.20;78.50;;;;;;5065685;28;19924;-74